Detall de PIREP

Printer-friendly versionPDF version

[2013/11/27 15:30:00]
Flight IATA:CT3246
Pilot Number:012
Company ICAO:CAT
Aircraft Type:B763/F
PAX:263
Departing Airport: LEPA
Destination Airport: EETN
Alternate Airport:EFHK
Online: VATSIM
Route:MEROS UN853 MOBLO UZ662 LAMUR UZ67 KORED UN871 DITON T163 ZUE T125 ROMIR UN851 LOHRE UN746 BINKA N746 KOLJA M611 LOGNA Q33 SULUN
Flight Level:F370
No Slew and time accel
No pause
Crash detect
Detect pilot in Cockpit between each 30 and 45 minutes
15:30 Zero fuel Weight: 252373 Lbs, Fuel Weight: 61003 Lbs
15:30 VATSIM:LEPA 271500Z 04008KT 9999 SCT030 10/04 Q1022 NOSIG
15:30 VATSIM:EETN 271520Z 24017KT 9999 OVC005 06/05 Q1000 R08/290195 TEMPO 24018G30KT
15:30 VOICE CATALONIAN
15:40 Parking Brakes off
15:45 Take-off
15:45 Take off Weight: 311792 Lbs
15:45 Wind: 039º @ 008 Knots Heading: 240º
15:45 POS N39º 33´ 16´´ E002º 43´ 33´´
15:45 Gear Up: 175 Knots
15:45 Flaps:2 at 175 Knots
15:45 Flaps:1 at 185 Knots
15:45 Flaps:0 at 199 Knots
16:00 Wind:319º@013 Knots Heading: 028º Ground Speed: 456 Knots Altitude 36200 ft
16:15 Wind:042º@029 Knots Heading: 034º Ground Speed: 424 Knots Altitude 36400 ft
16:30 Wind:053º@037 Knots Heading: 004º Ground Speed: 432 Knots Altitude 36377 ft
16:45 Wind:066º@045 Knots Heading: 001º Ground Speed: 434 Knots Altitude 36414 ft
17:00 Wind:068º@077 Knots Heading: 032º Ground Speed: 389 Knots Altitude 36453 ft
17:15 Wind:069º@087 Knots Heading: 061º Ground Speed: 362 Knots Altitude 36515 ft
17:30 Wind:068º@088 Knots Heading: 015º Ground Speed: 401 Knots Altitude 36555 ft
17:43 TOC
17:43 Fuel Weight: 35605 Lb
17:45 Wind:063º@087 Knots Heading: 041º Ground Speed: 368 Knots Altitude 37539 ft
18:00 Wind:055º@079 Knots Heading: 043º Ground Speed: 379 Knots Altitude 37467 ft
18:15 Wind:044º@072 Knots Heading: 042º Ground Speed: 379 Knots Altitude 37378 ft
18:30 Wind:029º@060 Knots Heading: 025º Ground Speed: 392 Knots Altitude 37234 ft
18:45 Wind:006º@050 Knots Heading: 029º Ground Speed: 411 Knots Altitude 37043 ft
19:00 Wind:354º@068 Knots Heading: 049º Ground Speed: 419 Knots Altitude 36856 ft
19:15 Wind:358º@073 Knots Heading: 039º Ground Speed: 405 Knots Altitude 36725 ft
19:18 TOD
19:18 Fuel Weight: 20649 Lb
19:30 Wind:299º@051 Knots Heading: 049º Ground Speed: 301 Knots Altitude 10419 ft
19:45 Wind:249º@016 Knots Heading: 060º Ground Speed: 246 Knots Altitude 3766 ft
19:45 Flaps:1 at 215 Knots
19:48 Flaps:2 at 196 Knots
19:49 Gear Down: 197 Knots
19:49 Flaps:3 at 174 Knots
19:51 Flaps:4 at 151 Knots
19:51 Flaps:5 at 157 Knots
19:51 Flaps:6 at 157 Knots
19:54 TouchDown:Rate -232 ft/min Speed: 118 Knots
19:54 Flaps:2 at 38 Knots
19:54 VATSIM:EETN 271950Z 26014KT 9999 -RA BKN008 OVC015 07/06 Q0996 R08/290195 NOSIG
19:54 Land
19:54 Wind:242º@015 Knots
19:54 Heading: 268º
19:54 Flight Duration: 04:09
19:54 Landing Weight: 268638 Lbs
19:54 POS N59º 24´ 47´´ E024º 50´ 19´´
19:58 Parking brakes on
19:58 Block to Block Duration: 04:18
19:58 Final Fuel: 15771 Lbls
19:58 Spent Fuel: 45231 Lbls
19:58 Flight Length: 1599 NM
19:58 TOD Land Length: 169 NM

Exportar CSV

Powered by Drupal - Modified by Danger4k